sensor_id;sensor_type;location;lat;lon;timestamp;P1;durP1;ratioP1;P2;durP2;ratioP2
69621;SDS011;56841;55.964;37.674;2023-04-03T00:01:38;20.77;;;10.13;;
69621;SDS011;56841;55.964;37.674;2023-04-03T00:04:21;19.83;;;10.45;;
69621;SDS011;56841;55.964;37.674;2023-04-03T00:06:47;20.48;;;10.48;;
69621;SDS011;56841;55.964;37.674;2023-04-03T00:09:13;19.80;;;9.50;;
69621;SDS011;56841;55.964;37.674;2023-04-03T00:11:40;21.05;;;10.20;;
69621;SDS011;56841;55.964;37.674;2023-04-03T00:14:05;22.33;;;10.35;;
69621;SDS011;56841;55.964;37.674;2023-04-03T00:16:31;28.98;;;10.70;;
69621;SDS011;56841;55.964;37.674;2023-04-03T00:18:57;27.77;;;11.15;;
69621;SDS011;56841;55.964;37.674;2023-04-03T00:21:23;28.33;;;11.63;;
69621;SDS011;56841;55.964;37.674;2023-04-03T00:23:49;27.05;;;11.52;;
69621;SDS011;56841;55.964;37.674;2023-04-03T00:26:15;27.83;;;11.30;;
69621;SDS011;56841;55.964;37.674;2023-04-03T00:28:41;34.08;;;12.75;;
69621;SDS011;56841;55.964;37.674;2023-04-03T00:31:07;33.50;;;12.95;;
69621;SDS011;56841;55.964;37.674;2023-04-03T00:33:34;31.27;;;11.88;;
69621;SDS011;56841;55.964;37.674;2023-04-03T00:36:05;40.42;;;14.00;;
69621;SDS011;56841;55.964;37.674;2023-04-03T00:38:32;35.60;;;14.07;;
69621;SDS011;56841;55.964;37.674;2023-04-03T00:40:58;36.45;;;14.55;;
69621;SDS011;56841;55.964;37.674;2023-04-03T00:43:24;33.70;;;13.65;;
69621;SDS011;56841;55.964;37.674;2023-04-03T00:45:52;37.90;;;15.80;;
69621;SDS011;56841;55.964;37.674;2023-04-03T00:48:20;34.25;;;13.75;;
69621;SDS011;56841;55.964;37.674;2023-04-03T00:50:50;38.53;;;15.38;;
69621;SDS011;56841;55.964;37.674;2023-04-03T00:53:20;25.48;;;11.68;;
69621;SDS011;56841;55.964;37.674;2023-04-03T00:55:50;23.88;;;10.77;;
69621;SDS011;56841;55.964;37.674;2023-04-03T00:58:22;22.80;;;10.20;;
69621;SDS011;56841;55.964;37.674;2023-04-03T01:00:55;28.65;;;10.80;;
69621;SDS011;56841;55.964;37.674;2023-04-03T01:03:24;25.90;;;12.38;;
69621;SDS011;56841;55.964;37.674;2023-04-03T01:05:50;30.63;;;11.43;;
69621;SDS011;56841;55.964;37.674;2023-04-03T01:08:16;29.77;;;11.25;;
69621;SDS011;56841;55.964;37.674;2023-04-03T01:10:42;33.35;;;12.10;;
69621;SDS011;56841;55.964;37.674;2023-04-03T01:16:05;23.90;;;10.40;;
69621;SDS011;56841;55.964;37.674;2023-04-03T01:18:32;31.67;;;11.55;;
69621;SDS011;56841;55.964;37.674;2023-04-03T01:21:18;34.40;;;12.55;;
69621;SDS011;56841;55.964;37.674;2023-04-03T01:24:22;28.42;;;11.50;;
69621;SDS011;56841;55.964;37.674;2023-04-03T01:27:02;24.67;;;9.70;;
69621;SDS011;56841;55.964;37.674;2023-04-03T01:29:30;23.30;;;8.65;;
69621;SDS011;56841;55.964;37.674;2023-04-03T01:31:56;21.45;;;8.65;;
69621;SDS011;56841;55.964;37.674;2023-04-03T01:34:24;18.83;;;8.80;;
69621;SDS011;56841;55.964;37.674;2023-04-03T01:36:51;19.23;;;8.57;;
69621;SDS011;56841;55.964;37.674;2023-04-03T01:39:18;18.52;;;9.10;;
69621;SDS011;56841;55.964;37.674;2023-04-03T01:41:45;18.45;;;8.18;;
69621;SDS011;56841;55.964;37.674;2023-04-03T01:44:17;19.55;;;8.57;;
69621;SDS011;56841;55.964;37.674;2023-04-03T01:46:44;22.08;;;8.85;;
69621;SDS011;56841;55.964;37.674;2023-04-03T01:49:10;19.80;;;8.77;;
69621;SDS011;56841;55.964;37.674;2023-04-03T01:51:36;21.10;;;8.95;;
69621;SDS011;56841;55.964;37.674;2023-04-03T01:54:01;19.05;;;8.25;;
69621;SDS011;56841;55.964;37.674;2023-04-03T01:56:27;21.52;;;9.07;;
69621;SDS011;56841;55.964;37.674;2023-04-03T01:58:54;17.75;;;8.85;;
69621;SDS011;56841;55.964;37.674;2023-04-03T02:01:19;19.48;;;9.48;;
69621;SDS011;56841;55.964;37.674;2023-04-03T02:03:46;18.92;;;8.40;;
69621;SDS011;56841;55.964;37.674;2023-04-03T02:06:12;19.90;;;8.95;;
69621;SDS011;56841;55.964;37.674;2023-04-03T02:08:38;21.58;;;9.07;;
69621;SDS011;56841;55.964;37.674;2023-04-03T02:11:05;19.60;;;8.52;;
69621;SDS011;56841;55.964;37.674;2023-04-03T02:13:32;21.08;;;8.77;;
69621;SDS011;56841;55.964;37.674;2023-04-03T02:15:58;20.75;;;9.52;;
69621;SDS011;56841;55.964;37.674;2023-04-03T02:18:24;20.27;;;8.85;;
69621;SDS011;56841;55.964;37.674;2023-04-03T02:20:50;21.88;;;8.40;;
69621;SDS011;56841;55.964;37.674;2023-04-03T02:23:17;19.67;;;9.45;;
69621;SDS011;56841;55.964;37.674;2023-04-03T02:25:43;21.50;;;9.63;;
69621;SDS011;56841;55.964;37.674;2023-04-03T02:28:08;25.63;;;9.73;;
69621;SDS011;56841;55.964;37.674;2023-04-03T02:30:34;21.60;;;9.65;;
69621;SDS011;56841;55.964;37.674;2023-04-03T02:33:00;21.05;;;9.07;;
69621;SDS011;56841;55.964;37.674;2023-04-03T02:35:26;21.50;;;9.27;;
69621;SDS011;56841;55.964;37.674;2023-04-03T02:37:54;21.63;;;9.38;;
69621;SDS011;56841;55.964;37.674;2023-04-03T02:40:22;21.73;;;10.20;;
69621;SDS011;56841;55.964;37.674;2023-04-03T02:42:47;21.17;;;9.90;;
69621;SDS011;56841;55.964;37.674;2023-04-03T02:45:13;23.80;;;9.02;;
69621;SDS011;56841;55.964;37.674;2023-04-03T02:47:41;22.08;;;9.82;;
69621;SDS011;56841;55.964;37.674;2023-04-03T02:50:06;23.33;;;10.35;;
69621;SDS011;56841;55.964;37.674;2023-04-03T02:52:32;20.35;;;9.75;;
69621;SDS011;56841;55.964;37.674;2023-04-03T02:55:00;23.38;;;9.55;;
69621;SDS011;56841;55.964;37.674;2023-04-03T02:57:25;26.30;;;11.10;;
69621;SDS011;56841;55.964;37.674;2023-04-03T02:59:51;25.05;;;10.65;;
69621;SDS011;56841;55.964;37.674;2023-04-03T03:02:17;32.28;;;12.35;;
69621;SDS011;56841;55.964;37.674;2023-04-03T03:04:43;26.73;;;13.52;;
69621;SDS011;56841;55.964;37.674;2023-04-03T03:07:09;33.00;;;15.05;;
69621;SDS011;56841;55.964;37.674;2023-04-03T03:09:34;31.30;;;13.98;;
69621;SDS011;56841;55.964;37.674;2023-04-03T03:12:00;31.17;;;14.43;;
69621;SDS011;56841;55.964;37.674;2023-04-03T03:14:29;33.35;;;14.00;;
69621;SDS011;56841;55.964;37.674;2023-04-03T03:16:55;29.45;;;13.18;;
69621;SDS011;56841;55.964;37.674;2023-04-03T03:19:21;30.20;;;12.90;;
69621;SDS011;56841;55.964;37.674;2023-04-03T03:21:46;26.17;;;13.45;;
69621;SDS011;56841;55.964;37.674;2023-04-03T03:24:12;29.52;;;14.45;;
69621;SDS011;56841;55.964;37.674;2023-04-03T03:26:38;25.15;;;13.27;;
69621;SDS011;56841;55.964;37.674;2023-04-03T03:29:04;27.23;;;12.10;;
69621;SDS011;56841;55.964;37.674;2023-04-03T03:31:31;25.75;;;11.40;;
69621;SDS011;56841;55.964;37.674;2023-04-03T03:33:57;28.17;;;11.93;;
69621;SDS011;56841;55.964;37.674;2023-04-03T03:36:23;23.27;;;11.50;;
69621;SDS011;56841;55.964;37.674;2023-04-03T03:38:48;22.73;;;11.45;;
69621;SDS011;56841;55.964;37.674;2023-04-03T03:41:14;23.98;;;11.43;;
69621;SDS011;56841;55.964;37.674;2023-04-03T03:43:43;21.75;;;11.10;;
69621;SDS011;56841;55.964;37.674;2023-04-03T03:46:09;22.00;;;10.77;;
69621;SDS011;56841;55.964;37.674;2023-04-03T03:48:35;22.88;;;11.73;;
69621;SDS011;56841;55.964;37.674;2023-04-03T03:51:01;23.88;;;11.82;;
69621;SDS011;56841;55.964;37.674;2023-04-03T03:53:31;25.50;;;10.48;;
69621;SDS011;56841;55.964;37.674;2023-04-03T03:56:02;23.38;;;10.20;;
69621;SDS011;56841;55.964;37.674;2023-04-03T03:58:29;23.25;;;10.05;;
69621;SDS011;56841;55.964;37.674;2023-04-03T04:00:56;21.95;;;8.88;;
69621;SDS011;56841;55.964;37.674;2023-04-03T04:03:22;21.80;;;9.10;;
69621;SDS011;56841;55.964;37.674;2023-04-03T04:05:49;20.77;;;9.20;;
69621;SDS011;56841;55.964;37.674;2023-04-03T04:08:16;20.85;;;9.23;;
69621;SDS011;56841;55.964;37.674;2023-04-03T04:10:43;23.77;;;10.48;;
69621;SDS011;56841;55.964;37.674;2023-04-03T04:13:12;19.00;;;9.63;;
69621;SDS011;56841;55.964;37.674;2023-04-03T04:15:38;19.85;;;9.07;;
69621;SDS011;56841;55.964;37.674;2023-04-03T04:18:04;21.05;;;9.93;;
69621;SDS011;56841;55.964;37.674;2023-04-03T04:20:30;20.65;;;9.05;;
69621;SDS011;56841;55.964;37.674;2023-04-03T04:22:56;19.25;;;8.65;;
69621;SDS011;56841;55.964;37.674;2023-04-03T04:25:23;18.15;;;8.43;;
69621;SDS011;56841;55.964;37.674;2023-04-03T04:27:49;18.85;;;8.55;;
69621;SDS011;56841;55.964;37.674;2023-04-03T04:30:14;19.83;;;8.88;;
69621;SDS011;56841;55.964;37.674;2023-04-03T04:32:41;19.65;;;8.93;;
69621;SDS011;56841;55.964;37.674;2023-04-03T04:35:07;18.83;;;8.70;;
69621;SDS011;56841;55.964;37.674;2023-04-03T04:37:38;20.02;;;8.70;;
69621;SDS011;56841;55.964;37.674;2023-04-03T04:40:04;20.13;;;8.95;;
69621;SDS011;56841;55.964;37.674;2023-04-03T04:42:30;19.40;;;9.00;;
69621;SDS011;56841;55.964;37.674;2023-04-03T04:44:56;20.67;;;9.48;;
69621;SDS011;56841;55.964;37.674;2023-04-03T04:47:23;18.13;;;8.85;;
69621;SDS011;56841;55.964;37.674;2023-04-03T04:49:49;18.63;;;8.25;;
69621;SDS011;56841;55.964;37.674;2023-04-03T04:52:16;21.17;;;9.20;;
69621;SDS011;56841;55.964;37.674;2023-04-03T04:54:42;23.65;;;9.40;;
69621;SDS011;56841;55.964;37.674;2023-04-03T04:57:08;19.52;;;8.98;;
69621;SDS011;56841;55.964;37.674;2023-04-03T04:59:36;20.00;;;8.80;;
69621;SDS011;56841;55.964;37.674;2023-04-03T05:02:02;18.05;;;8.98;;
69621;SDS011;56841;55.964;37.674;2023-04-03T05:04:28;18.38;;;8.68;;
69621;SDS011;56841;55.964;37.674;2023-04-03T05:07:00;19.45;;;9.90;;
69621;SDS011;56841;55.964;37.674;2023-04-03T05:09:28;22.33;;;9.85;;
69621;SDS011;56841;55.964;37.674;2023-04-03T05:11:55;23.48;;;9.93;;
69621;SDS011;56841;55.964;37.674;2023-04-03T05:14:24;22.33;;;10.23;;
69621;SDS011;56841;55.964;37.674;2023-04-03T05:16:51;21.20;;;9.73;;
69621;SDS011;56841;55.964;37.674;2023-04-03T05:19:21;20.55;;;9.98;;
69621;SDS011;56841;55.964;37.674;2023-04-03T05:21:47;22.20;;;10.73;;
69621;SDS011;56841;55.964;37.674;2023-04-03T05:24:15;20.88;;;10.90;;
69621;SDS011;56841;55.964;37.674;2023-04-03T05:26:42;24.33;;;11.77;;
69621;SDS011;56841;55.964;37.674;2023-04-03T05:29:10;23.63;;;11.73;;
69621;SDS011;56841;55.964;37.674;2023-04-03T05:31:36;24.05;;;11.65;;
69621;SDS011;56841;55.964;37.674;2023-04-03T05:34:02;23.13;;;11.68;;
69621;SDS011;56841;55.964;37.674;2023-04-03T05:36:30;23.38;;;11.75;;
69621;SDS011;56841;55.964;37.674;2023-04-03T05:39:01;25.48;;;12.43;;
69621;SDS011;56841;55.964;37.674;2023-04-03T05:41:27;25.98;;;12.10;;
69621;SDS011;56841;55.964;37.674;2023-04-03T05:43:52;23.25;;;11.43;;
69621;SDS011;56841;55.964;37.674;2023-04-03T05:46:20;23.98;;;11.70;;
69621;SDS011;56841;55.964;37.674;2023-04-03T05:48:50;21.63;;;11.05;;
69621;SDS011;56841;55.964;37.674;2023-04-03T05:51:24;23.70;;;11.00;;
69621;SDS011;56841;55.964;37.674;2023-04-03T05:54:00;24.88;;;12.55;;
69621;SDS011;56841;55.964;37.674;2023-04-03T05:56:32;22.92;;;11.82;;
69621;SDS011;56841;55.964;37.674;2023-04-03T05:58:58;24.48;;;11.32;;
69621;SDS011;56841;55.964;37.674;2023-04-03T06:01:24;22.85;;;11.25;;
69621;SDS011;56841;55.964;37.674;2023-04-03T06:03:50;21.67;;;10.52;;
69621;SDS011;56841;55.964;37.674;2023-04-03T06:06:16;25.98;;;11.90;;
69621;SDS011;56841;55.964;37.674;2023-04-03T06:08:43;22.73;;;11.13;;
69621;SDS011;56841;55.964;37.674;2023-04-03T06:11:10;24.50;;;11.60;;
69621;SDS011;56841;55.964;37.674;2023-04-03T06:13:36;22.60;;;10.05;;
69621;SDS011;56841;55.964;37.674;2023-04-03T06:16:02;21.45;;;10.50;;
69621;SDS011;56841;55.964;37.674;2023-04-03T06:18:29;23.17;;;10.85;;
69621;SDS011;56841;55.964;37.674;2023-04-03T06:20:55;23.77;;;11.45;;
69621;SDS011;56841;55.964;37.674;2023-04-03T06:23:21;23.15;;;10.75;;
69621;SDS011;56841;55.964;37.674;2023-04-03T06:25:47;21.52;;;11.00;;
69621;SDS011;56841;55.964;37.674;2023-04-03T06:28:12;22.13;;;10.52;;
69621;SDS011;56841;55.964;37.674;2023-04-03T06:30:38;20.67;;;10.07;;
69621;SDS011;56841;55.964;37.674;2023-04-03T06:33:04;19.35;;;9.75;;
69621;SDS011;56841;55.964;37.674;2023-04-03T06:35:30;20.88;;;9.70;;
69621;SDS011;56841;55.964;37.674;2023-04-03T06:37:56;20.92;;;10.73;;
69621;SDS011;56841;55.964;37.674;2023-04-03T06:40:23;22.52;;;10.40;;
69621;SDS011;56841;55.964;37.674;2023-04-03T06:42:50;22.90;;;10.27;;
69621;SDS011;56841;55.964;37.674;2023-04-03T06:45:18;21.33;;;9.90;;
69621;SDS011;56841;55.964;37.674;2023-04-03T06:47:44;22.45;;;10.55;;
69621;SDS011;56841;55.964;37.674;2023-04-03T06:50:11;23.15;;;10.10;;
69621;SDS011;56841;55.964;37.674;2023-04-03T06:52:39;22.02;;;10.52;;
69621;SDS011;56841;55.964;37.674;2023-04-03T06:55:06;25.10;;;10.45;;
69621;SDS011;56841;55.964;37.674;2023-04-03T06:57:32;23.15;;;10.57;;
69621;SDS011;56841;55.964;37.674;2023-04-03T06:59:58;23.05;;;10.73;;
69621;SDS011;56841;55.964;37.674;2023-04-03T07:02:23;20.67;;;10.18;;
69621;SDS011;56841;55.964;37.674;2023-04-03T07:04:49;21.52;;;10.50;;
69621;SDS011;56841;55.964;37.674;2023-04-03T07:07:15;21.58;;;10.38;;
69621;SDS011;56841;55.964;37.674;2023-04-03T07:09:42;23.13;;;10.02;;
69621;SDS011;56841;55.964;37.674;2023-04-03T07:12:08;22.70;;;10.02;;
69621;SDS011;56841;55.964;37.674;2023-04-03T07:14:34;26.02;;;10.35;;
69621;SDS011;56841;55.964;37.674;2023-04-03T07:17:00;20.95;;;10.05;;
69621;SDS011;56841;55.964;37.674;2023-04-03T07:19:25;21.08;;;9.80;;
69621;SDS011;56841;55.964;37.674;2023-04-03T07:21:53;21.92;;;10.50;;
69621;SDS011;56841;55.964;37.674;2023-04-03T07:24:19;22.10;;;10.27;;
69621;SDS011;56841;55.964;37.674;2023-04-03T07:26:48;20.83;;;10.15;;
69621;SDS011;56841;55.964;37.674;2023-04-03T07:29:15;19.73;;;10.00;;
69621;SDS011;56841;55.964;37.674;2023-04-03T07:31:41;19.75;;;9.65;;
69621;SDS011;56841;55.964;37.674;2023-04-03T07:34:10;16.23;;;8.80;;
69621;SDS011;56841;55.964;37.674;2023-04-03T07:36:36;15.18;;;8.80;;
69621;SDS011;56841;55.964;37.674;2023-04-03T07:39:03;17.67;;;9.20;;
69621;SDS011;56841;55.964;37.674;2023-04-03T07:41:29;17.77;;;8.88;;
69621;SDS011;56841;55.964;37.674;2023-04-03T07:43:55;17.67;;;9.32;;
69621;SDS011;56841;55.964;37.674;2023-04-03T07:46:22;14.57;;;8.25;;
69621;SDS011;56841;55.964;37.674;2023-04-03T07:48:48;20.63;;;8.98;;
69621;SDS011;56841;55.964;37.674;2023-04-03T07:51:14;21.65;;;9.15;;
69621;SDS011;56841;55.964;37.674;2023-04-03T07:53:40;17.38;;;8.02;;
69621;SDS011;56841;55.964;37.674;2023-04-03T07:56:06;20.50;;;9.48;;
69621;SDS011;56841;55.964;37.674;2023-04-03T07:58:33;18.33;;;8.40;;
69621;SDS011;56841;55.964;37.674;2023-04-03T08:00:59;18.15;;;10.15;;
69621;SDS011;56841;55.964;37.674;2023-04-03T08:03:25;18.23;;;9.00;;
69621;SDS011;56841;55.964;37.674;2023-04-03T08:05:51;14.40;;;8.07;;
69621;SDS011;56841;55.964;37.674;2023-04-03T08:08:20;17.15;;;8.23;;
69621;SDS011;56841;55.964;37.674;2023-04-03T08:10:48;15.07;;;8.25;;
69621;SDS011;56841;55.964;37.674;2023-04-03T08:13:15;17.80;;;8.18;;
69621;SDS011;56841;55.964;37.674;2023-04-03T08:15:41;18.50;;;8.10;;
69621;SDS011;56841;55.964;37.674;2023-04-03T08:18:07;15.35;;;7.05;;
69621;SDS011;56841;55.964;37.674;2023-04-03T08:20:33;18.38;;;8.32;;
69621;SDS011;56841;55.964;37.674;2023-04-03T08:22:59;17.20;;;7.18;;
69621;SDS011;56841;55.964;37.674;2023-04-03T08:25:26;19.88;;;8.20;;
69621;SDS011;56841;55.964;37.674;2023-04-03T08:27:51;13.52;;;6.80;;
69621;SDS011;56841;55.964;37.674;2023-04-03T08:30:17;15.98;;;7.53;;
69621;SDS011;56841;55.964;37.674;2023-04-03T08:32:43;15.93;;;7.22;;
69621;SDS011;56841;55.964;37.674;2023-04-03T08:35:09;14.85;;;7.63;;
69621;SDS011;56841;55.964;37.674;2023-04-03T08:37:36;15.80;;;8.13;;
69621;SDS011;56841;55.964;37.674;2023-04-03T08:40:04;15.75;;;7.30;;
69621;SDS011;56841;55.964;37.674;2023-04-03T08:50:15;14.88;;;7.32;;
69621;SDS011;56841;55.964;37.674;2023-04-03T08:52:44;21.15;;;7.80;;
69621;SDS011;56841;55.964;37.674;2023-04-03T08:55:24;17.85;;;8.63;;
69621;SDS011;56841;55.964;37.674;2023-04-03T09:01:02;19.70;;;8.93;;
69621;SDS011;56841;55.964;37.674;2023-04-03T09:03:31;18.40;;;9.07;;
69621;SDS011;56841;55.964;37.674;2023-04-03T09:06:05;19.35;;;9.50;;
69621;SDS011;56841;55.964;37.674;2023-04-03T09:11:41;21.85;;;10.13;;
69621;SDS011;56841;55.964;37.674;2023-04-03T09:17:21;21.45;;;10.48;;
69621;SDS011;56841;55.964;37.674;2023-04-03T09:19:53;24.90;;;10.90;;
69621;SDS011;56841;55.964;37.674;2023-04-03T09:22:24;25.27;;;10.80;;
69621;SDS011;56841;55.964;37.674;2023-04-03T09:25:13;18.40;;;9.38;;
69621;SDS011;56841;55.964;37.674;2023-04-03T09:27:43;18.02;;;9.23;;
69621;SDS011;56841;55.964;37.674;2023-04-03T09:30:20;17.95;;;9.43;;
69621;SDS011;56841;55.964;37.674;2023-04-03T09:32:52;21.70;;;10.25;;
69621;SDS011;56841;55.964;37.674;2023-04-03T09:37:58;19.52;;;9.98;;
69621;SDS011;56841;55.964;37.674;2023-04-03T09:43:01;22.00;;;11.20;;
69621;SDS011;56841;55.964;37.674;2023-04-03T09:45:44;23.45;;;11.90;;
69621;SDS011;56841;55.964;37.674;2023-04-03T09:53:27;24.58;;;12.60;;
69621;SDS011;56841;55.964;37.674;2023-04-03T09:55:59;25.42;;;12.68;;
69621;SDS011;56841;55.964;37.674;2023-04-03T09:58:33;22.85;;;12.20;;
69621;SDS011;56841;55.964;37.674;2023-04-03T10:01:06;28.35;;;14.07;;
69621;SDS011;56841;55.964;37.674;2023-04-03T10:03:45;26.60;;;13.10;;
69621;SDS011;56841;55.964;37.674;2023-04-03T10:06:22;29.40;;;12.43;;
69621;SDS011;56841;55.964;37.674;2023-04-03T10:08:59;26.35;;;12.90;;
69621;SDS011;56841;55.964;37.674;2023-04-03T10:11:29;26.75;;;12.38;;
69621;SDS011;56841;55.964;37.674;2023-04-03T10:13:56;30.63;;;11.73;;
69621;SDS011;56841;55.964;37.674;2023-04-03T10:37:46;16.20;;;8.52;;
69621;SDS011;56841;55.964;37.674;2023-04-03T10:40:29;18.17;;;7.90;;
69621;SDS011;56841;55.964;37.674;2023-04-03T10:43:04;18.77;;;7.03;;
69621;SDS011;56841;55.964;37.674;2023-04-03T10:45:38;13.80;;;6.60;;
69621;SDS011;56841;55.964;37.674;2023-04-03T10:48:16;20.17;;;7.38;;
69621;SDS011;56841;55.964;37.674;2023-04-03T10:51:04;14.15;;;6.70;;
69621;SDS011;56841;55.964;37.674;2023-04-03T10:58:45;13.10;;;6.45;;
69621;SDS011;56841;55.964;37.674;2023-04-03T11:01:23;16.17;;;6.47;;
69621;SDS011;56841;55.964;37.674;2023-04-03T11:03:56;16.13;;;6.30;;
69621;SDS011;56841;55.964;37.674;2023-04-03T11:06:25;14.77;;;6.32;;
69621;SDS011;56841;55.964;37.674;2023-04-03T11:09:05;13.68;;;6.80;;
69621;SDS011;56841;55.964;37.674;2023-04-03T11:11:41;14.52;;;6.00;;
69621;SDS011;56841;55.964;37.674;2023-04-03T11:14:19;16.40;;;6.28;;
69621;SDS011;56841;55.964;37.674;2023-04-03T11:16:47;11.77;;;6.47;;
69621;SDS011;56841;55.964;37.674;2023-04-03T11:19:21;11.25;;;6.53;;
69621;SDS011;56841;55.964;37.674;2023-04-03T11:22:02;13.23;;;6.38;;
69621;SDS011;56841;55.964;37.674;2023-04-03T11:24:36;13.63;;;7.00;;
69621;SDS011;56841;55.964;37.674;2023-04-03T11:27:08;12.15;;;7.18;;
69621;SDS011;56841;55.964;37.674;2023-04-03T11:29:44;13.90;;;6.95;;
69621;SDS011;56841;55.964;37.674;2023-04-03T11:35:22;14.43;;;6.93;;
69621;SDS011;56841;55.964;37.674;2023-04-03T11:37:50;18.98;;;7.30;;
69621;SDS011;56841;55.964;37.674;2023-04-03T11:42:52;10.25;;;6.22;;
69621;SDS011;56841;55.964;37.674;2023-04-03T11:48:03;12.45;;;6.72;;
69621;SDS011;56841;55.964;37.674;2023-04-03T11:50:52;13.57;;;6.38;;
69621;SDS011;56841;55.964;37.674;2023-04-03T11:53:37;12.45;;;6.38;;
69621;SDS011;56841;55.964;37.674;2023-04-03T11:56:27;14.35;;;6.80;;
69621;SDS011;56841;55.964;37.674;2023-04-03T12:01:44;15.25;;;6.70;;
69621;SDS011;56841;55.964;37.674;2023-04-03T12:04:11;13.73;;;6.38;;
69621;SDS011;56841;55.964;37.674;2023-04-03T12:11:51;10.90;;;5.35;;
69621;SDS011;56841;55.964;37.674;2023-04-03T12:14:17;15.52;;;5.38;;
69621;SDS011;56841;55.964;37.674;2023-04-03T12:16:45;9.80;;;4.75;;
69621;SDS011;56841;55.964;37.674;2023-04-03T12:22:15;11.80;;;4.82;;
69621;SDS011;56841;55.964;37.674;2023-04-03T12:24:45;9.38;;;4.60;;
69621;SDS011;56841;55.964;37.674;2023-04-03T12:41:38;14.07;;;5.25;;
69621;SDS011;56841;55.964;37.674;2023-04-03T12:44:27;9.65;;;5.10;;
69621;SDS011;56841;55.964;37.674;2023-04-03T12:47:09;13.27;;;5.35;;
69621;SDS011;56841;55.964;37.674;2023-04-03T12:49:48;19.77;;;5.95;;
69621;SDS011;56841;55.964;37.674;2023-04-03T12:54:59;10.02;;;5.07;;
69621;SDS011;56841;55.964;37.674;2023-04-03T12:57:29;9.73;;;5.57;;
69621;SDS011;56841;55.964;37.674;2023-04-03T12:59:55;10.73;;;5.53;;
69621;SDS011;56841;55.964;37.674;2023-04-03T13:02:29;12.68;;;5.93;;
69621;SDS011;56841;55.964;37.674;2023-04-03T13:04:59;13.07;;;6.07;;
69621;SDS011;56841;55.964;37.674;2023-04-03T13:07:33;14.43;;;5.95;;
69621;SDS011;56841;55.964;37.674;2023-04-03T13:12:33;16.30;;;6.20;;
69621;SDS011;56841;55.964;37.674;2023-04-03T13:15:02;17.25;;;6.55;;
69621;SDS011;56841;55.964;37.674;2023-04-03T13:17:38;15.90;;;6.35;;
69621;SDS011;56841;55.964;37.674;2023-04-03T13:20:39;19.17;;;6.45;;
69621;SDS011;56841;55.964;37.674;2023-04-03T13:23:02;13.35;;;6.28;;
69621;SDS011;56841;55.964;37.674;2023-04-03T13:25:35;15.70;;;6.32;;
69621;SDS011;56841;55.964;37.674;2023-04-03T13:28:05;14.70;;;5.80;;
69621;SDS011;56841;55.964;37.674;2023-04-03T13:30:36;16.30;;;6.10;;
69621;SDS011;56841;55.964;37.674;2023-04-03T13:33:05;13.48;;;6.05;;
69621;SDS011;56841;55.964;37.674;2023-04-03T13:35:44;11.48;;;5.78;;
69621;SDS011;56841;55.964;37.674;2023-04-03T13:40:52;16.50;;;8.02;;
69621;SDS011;56841;55.964;37.674;2023-04-03T13:43:33;19.92;;;8.52;;
69621;SDS011;56841;55.964;37.674;2023-04-03T13:53:49;24.90;;;10.27;;
69621;SDS011;56841;55.964;37.674;2023-04-03T13:56:24;19.67;;;9.60;;
69621;SDS011;56841;55.964;37.674;2023-04-03T13:58:55;22.75;;;10.60;;
69621;SDS011;56841;55.964;37.674;2023-04-03T14:01:24;21.17;;;11.18;;
69621;SDS011;56841;55.964;37.674;2023-04-03T14:06:24;23.00;;;9.40;;
69621;SDS011;56841;55.964;37.674;2023-04-03T14:08:50;21.63;;;10.30;;
69621;SDS011;56841;55.964;37.674;2023-04-03T14:11:21;16.80;;;9.85;;
69621;SDS011;56841;55.964;37.674;2023-04-03T14:13:50;27.23;;;11.25;;
69621;SDS011;56841;55.964;37.674;2023-04-03T14:16:18;25.13;;;11.45;;
69621;SDS011;56841;55.964;37.674;2023-04-03T14:18:46;22.95;;;11.80;;
69621;SDS011;56841;55.964;37.674;2023-04-03T14:21:14;23.17;;;12.10;;
69621;SDS011;56841;55.964;37.674;2023-04-03T14:23:42;29.27;;;12.63;;
69621;SDS011;56841;55.964;37.674;2023-04-03T14:26:13;26.35;;;11.48;;
69621;SDS011;56841;55.964;37.674;2023-04-03T14:28:42;26.08;;;11.63;;
69621;SDS011;56841;55.964;37.674;2023-04-03T14:31:09;27.75;;;11.70;;
69621;SDS011;56841;55.964;37.674;2023-04-03T14:33:36;19.50;;;10.27;;
69621;SDS011;56841;55.964;37.674;2023-04-03T14:36:11;17.40;;;9.90;;
69621;SDS011;56841;55.964;37.674;2023-04-03T14:38:39;19.15;;;10.15;;
69621;SDS011;56841;55.964;37.674;2023-04-03T14:41:07;22.40;;;11.80;;
69621;SDS011;56841;55.964;37.674;2023-04-03T14:43:33;23.35;;;10.27;;
69621;SDS011;56841;55.964;37.674;2023-04-03T14:45:59;20.55;;;11.35;;
69621;SDS011;56841;55.964;37.674;2023-04-03T14:48:26;20.20;;;11.10;;
69621;SDS011;56841;55.964;37.674;2023-04-03T14:50:53;23.33;;;11.20;;
69621;SDS011;56841;55.964;37.674;2023-04-03T14:53:19;22.17;;;11.68;;
69621;SDS011;56841;55.964;37.674;2023-04-03T14:55:50;32.60;;;15.15;;
69621;SDS011;56841;55.964;37.674;2023-04-03T14:58:17;47.83;;;21.85;;
69621;SDS011;56841;55.964;37.674;2023-04-03T15:00:45;28.60;;;14.80;;
69621;SDS011;56841;55.964;37.674;2023-04-03T15:03:18;26.20;;;13.57;;
69621;SDS011;56841;55.964;37.674;2023-04-03T15:05:48;25.58;;;12.73;;
69621;SDS011;56841;55.964;37.674;2023-04-03T15:08:18;25.90;;;12.80;;
69621;SDS011;56841;55.964;37.674;2023-04-03T15:10:54;21.67;;;12.63;;
69621;SDS011;56841;55.964;37.674;2023-04-03T15:13:24;22.27;;;12.13;;
69621;SDS011;56841;55.964;37.674;2023-04-03T15:15:51;27.48;;;13.90;;
69621;SDS011;56841;55.964;37.674;2023-04-03T15:18:18;30.40;;;15.18;;
69621;SDS011;56841;55.964;37.674;2023-04-03T15:20:47;23.17;;;11.40;;
69621;SDS011;56841;55.964;37.674;2023-04-03T15:23:15;20.73;;;10.75;;
69621;SDS011;56841;55.964;37.674;2023-04-03T15:25:42;21.20;;;11.05;;
69621;SDS011;56841;55.964;37.674;2023-04-03T15:28:15;23.05;;;10.52;;
69621;SDS011;56841;55.964;37.674;2023-04-03T15:31:01;19.85;;;9.27;;
69621;SDS011;56841;55.964;37.674;2023-04-03T15:33:27;22.60;;;10.77;;
69621;SDS011;56841;55.964;37.674;2023-04-03T15:35:53;18.33;;;10.65;;
69621;SDS011;56841;55.964;37.674;2023-04-03T15:38:20;18.52;;;9.50;;
69621;SDS011;56841;55.964;37.674;2023-04-03T15:40:46;17.90;;;10.10;;
69621;SDS011;56841;55.964;37.674;2023-04-03T15:43:15;18.75;;;10.57;;
69621;SDS011;56841;55.964;37.674;2023-04-03T15:45:41;22.48;;;11.00;;
69621;SDS011;56841;55.964;37.674;2023-04-03T15:48:08;26.92;;;13.20;;
69621;SDS011;56841;55.964;37.674;2023-04-03T15:50:35;24.63;;;12.52;;
69621;SDS011;56841;55.964;37.674;2023-04-03T15:53:01;21.63;;;11.32;;
69621;SDS011;56841;55.964;37.674;2023-04-03T15:55:29;32.22;;;14.93;;
69621;SDS011;56841;55.964;37.674;2023-04-03T15:57:56;30.85;;;14.68;;
69621;SDS011;56841;55.964;37.674;2023-04-03T16:00:23;23.40;;;11.82;;
69621;SDS011;56841;55.964;37.674;2023-04-03T16:02:50;21.85;;;11.25;;
69621;SDS011;56841;55.964;37.674;2023-04-03T16:05:29;24.20;;;11.07;;
69621;SDS011;56841;55.964;37.674;2023-04-03T16:07:58;26.40;;;12.95;;
69621;SDS011;56841;55.964;37.674;2023-04-03T16:10:25;24.02;;;12.80;;
69621;SDS011;56841;55.964;37.674;2023-04-03T16:12:51;28.45;;;14.52;;
69621;SDS011;56841;55.964;37.674;2023-04-03T16:15:17;28.80;;;14.88;;